Time;durP1;ratioP1;P1;durP2;ratioP2;P2;SDS_P1;SDS_P2;PMS_P1;PMS_P2;Temp;Humidity;BMP_temperature;BMP_pressure;BME280_temperature;BME280_humidity;BME280_pressure;Samples;Min_cycle;Max_cycle;Signal;HPM_P1;HPM_P2
2021/12/11 00:03:06;;;;;;;78.80;34.93;;;-0.10;99.90;;;;;;10524277;28;20206;-80
2021/12/11 00:08:31;;;;;;;78.43;33.70;;;-0.10;99.90;;;;;;10510908;28;20205;-81
2021/12/11 00:13:55;;;;;;;87.10;35.70;;;-0.10;99.90;;;;;;10505248;28;20218;-78
2021/12/11 00:19:26;;;;;;;87.80;37.30;;;-0.20;99.90;;;;;;10524681;28;20202;-81
2021/12/11 00:24:49;;;;;;;85.23;36.93;;;-0.20;99.90;;;;;;10524581;28;20198;-81
2021/12/11 00:30:21;;;;;;;67.80;31.30;;;-0.10;99.90;;;;;;10523961;28;20269;-80
2021/12/11 00:35:44;;;;;;;78.40;34.67;;;-0.10;99.90;;;;;;10522271;28;20256;-78
2021/12/11 00:41:11;;;;;;;84.57;36.47;;;-0.10;99.90;;;;;;10519901;28;20556;-79
2021/12/11 00:46:34;;;;;;;75.97;34.30;;;-0.10;99.90;;;;;;10523454;28;20240;-78
2021/12/11 00:51:56;;;;;;;70.80;32.67;;;-0.10;99.90;;;;;;10523437;28;20195;-78
2021/12/11 00:57:21;;;;;;;64.07;30.30;;;-0.20;99.90;;;;;;10522807;28;20554;-79
2021/12/11 01:02:46;;;;;;;79.50;33.23;;;-0.20;99.90;;;;;;10488383;28;20212;-80
2021/12/11 01:08:24;;;;;;;78.13;34.63;;;-0.30;99.90;;;;;;10489795;28;20216;-79
2021/12/11 01:13:55;;;;;;;75.80;34.60;;;-0.20;99.90;;;;;;10522311;28;20504;-78
2021/12/11 01:19:19;;;;;;;73.57;32.97;;;-0.20;99.90;;;;;;10508001;28;20255;-78
2021/12/11 01:24:43;;;;;;;69.13;31.33;;;-0.20;99.90;;;;;;10522100;28;20202;-81
2021/12/11 01:30:11;;;;;;;69.60;34.70;;;-0.20;99.90;;;;;;10507358;28;20208;-78
2021/12/11 01:35:34;;;;;;;73.13;32.47;;;-0.30;99.90;;;;;;10501387;28;20229;-82
2021/12/11 01:41:03;;;;;;;73.23;33.77;;;-0.30;99.90;;;;;;10500600;28;20256;-80
2021/12/11 01:46:27;;;;;;;77.57;35.77;;;-0.30;99.90;;;;;;10507026;28;20239;-80
2021/12/11 01:52:03;;;;;;;76.73;32.40;;;-0.30;99.90;;;;;;10502626;28;20283;-80
2021/12/11 01:57:28;;;;;;;76.60;34.93;;;-0.30;99.90;;;;;;10520184;28;20412;-78
2021/12/11 02:02:53;;;;;;;74.13;33.90;;;-0.20;99.90;;;;;;10489670;28;20202;-77
2021/12/11 02:08:25;;;;;;;72.63;32.80;;;-0.20;99.90;;;;;;10502246;28;20195;-78
2021/12/11 02:13:56;;;;;;;77.97;33.27;;;-0.20;99.90;;;;;;10505787;28;20213;-78
2021/12/11 02:19:32;;;;;;;76.43;32.33;;;-0.20;99.90;;;;;;10519375;28;20208;-78
2021/12/11 02:25:01;;;;;;;68.07;31.33;;;-0.20;99.90;;;;;;10505197;28;20435;-79
2021/12/11 02:30:29;;;;;;;68.77;31.03;;;-0.20;99.90;;;;;;10505012;28;20228;-80
2021/12/11 02:35:54;;;;;;;68.90;33.17;;;-0.20;99.90;;;;;;10514584;28;20249;-80
2021/12/11 02:41:54;;;;;;;70.27;32.43;;;-0.20;99.90;;;;;;10518691;28;20236;-81
2021/12/11 02:47:27;;;;;;;65.80;30.60;;;-0.20;99.90;;;;;;10503155;28;20423;-80
2021/12/11 02:53:13;;;;;;;71.53;32.03;;;-0.20;99.90;;;;;;10519686;28;20194;-80
2021/12/11 02:58:43;;;;;;;69.50;30.50;;;-0.20;99.90;;;;;;10504386;28;20254;-79
2021/12/11 03:04:18;;;;;;;64.50;30.90;;;-0.20;99.90;;;;;;10517853;28;20202;-79
2021/12/11 03:09:52;;;;;;;59.77;30.67;;;-0.30;99.90;;;;;;10501322;28;20520;-80
2021/12/11 03:15:17;;;;;;;64.33;30.57;;;-0.30;99.90;;;;;;10504173;28;20280;-79
2021/12/11 03:20:41;;;;;;;60.57;30.07;;;-0.30;99.90;;;;;;10519419;28;20201;-79
2021/12/11 03:26:03;;;;;;;63.00;30.17;;;-0.30;99.90;;;;;;10518967;28;20511;-79
2021/12/11 03:31:26;;;;;;;66.43;29.47;;;-0.40;99.90;;;;;;10493505;28;20205;-79
2021/12/11 03:36:50;;;;;;;60.53;30.27;;;-0.30;99.90;;;;;;10507450;28;20227;-79
2021/12/11 03:42:23;;;;;;;63.97;29.80;;;-0.30;99.90;;;;;;10508853;28;20233;-79
2021/12/11 03:47:49;;;;;;;60.17;29.07;;;-0.20;99.90;;;;;;10467660;28;20205;-79
2021/12/11 03:53:14;;;;;;;56.80;27.83;;;-0.30;99.90;;;;;;10508590;28;20281;-80
2021/12/11 03:58:39;;;;;;;51.27;25.50;;;-0.30;99.90;;;;;;10495013;28;20237;-80
2021/12/11 04:04:05;;;;;;;53.03;26.70;;;-0.30;99.90;;;;;;10496743;28;20267;-79
2021/12/11 04:09:29;;;;;;;59.53;28.33;;;-0.30;99.90;;;;;;10525648;28;20223;-80
2021/12/11 04:14:52;;;;;;;58.50;29.00;;;-0.30;99.90;;;;;;10525600;28;20216;-79
2021/12/11 04:20:20;;;;;;;59.33;29.10;;;-0.30;99.90;;;;;;10507262;28;20204;-80
2021/12/11 04:25:45;;;;;;;63.27;29.27;;;-0.30;99.90;;;;;;10510474;28;20287;-79
2021/12/11 04:31:15;;;;;;;58.57;27.77;;;-0.30;99.90;;;;;;10506498;28;20207;-79
2021/12/11 04:36:42;;;;;;;57.67;27.57;;;-0.30;99.90;;;;;;10524548;28;20251;-79
2021/12/11 04:42:27;;;;;;;62.43;29.20;;;-0.40;99.90;;;;;;10520201;28;20307;-79
2021/12/11 04:48:37;;;;;;;54.37;27.17;;;-0.30;99.90;;;;;;10494599;28;20380;-79
2021/12/11 05:16:15;;;;;;;55.97;27.43;;;-0.30;99.90;;;;;;10395846;28;20250;-79
2021/12/11 05:21:38;;;;;;;54.20;27.33;;;-0.40;99.90;;;;;;10382008;28;20264;-80
2021/12/11 05:27:01;;;;;;;61.20;28.40;;;-0.30;99.90;;;;;;10361149;28;20242;-79
2021/12/11 05:32:26;;;;;;;66.70;30.50;;;-0.30;99.90;;;;;;10397301;28;20494;-79
2021/12/11 05:37:57;;;;;;;63.70;29.53;;;-0.30;99.90;;;;;;10513873;28;20238;-79
2021/12/11 05:43:20;;;;;;;54.93;27.50;;;-0.30;99.90;;;;;;10493648;28;20262;-81
2021/12/11 05:48:44;;;;;;;58.43;28.73;;;-0.30;99.90;;;;;;10503402;28;20549;-79
2021/12/11 05:54:11;;;;;;;61.97;28.80;;;-0.30;99.90;;;;;;10505887;28;20483;-79
2021/12/11 05:59:35;;;;;;;54.13;26.17;;;-0.20;99.90;;;;;;10474962;28;20228;-79
2021/12/11 06:04:59;;;;;;;56.83;27.00;;;-0.30;99.90;;;;;;10463909;28;20202;-79
2021/12/11 06:10:22;;;;;;;60.03;27.40;;;-0.30;99.90;;;;;;10503239;28;20211;-79
2021/12/11 06:15:44;;;;;;;61.77;30.00;;;-0.20;99.90;;;;;;10505924;28;20435;-79
2021/12/11 06:21:06;;;;;;;63.90;30.63;;;-0.10;99.90;;;;;;10505700;28;20386;-79
2021/12/11 06:26:29;;;;;;;55.30;26.13;;;-0.20;99.90;;;;;;10498995;28;20206;-80
2021/12/11 06:31:52;;;;;;;54.00;25.37;;;-0.20;99.90;;;;;;10519605;28;20194;-79
2021/12/11 06:37:16;;;;;;;76.17;36.10;;;-0.30;99.90;;;;;;10505352;28;20230;-80
2021/12/11 06:42:38;;;;;;;63.10;31.47;;;-0.30;99.90;;;;;;10505459;28;20381;-79
2021/12/11 06:48:01;;;;;;;72.20;36.43;;;-0.40;99.90;;;;;;10488056;28;20409;-80
2021/12/11 06:53:31;;;;;;;71.50;32.83;;;-0.40;99.90;;;;;;10501960;28;20187;-79
2021/12/11 06:58:53;;;;;;;74.70;36.73;;;-0.30;99.90;;;;;;10487775;28;20229;-79
2021/12/11 07:04:15;;;;;;;62.23;27.50;;;-0.30;99.90;;;;;;10509635;28;20492;-79
2021/12/11 07:09:38;;;;;;;59.97;28.90;;;-0.30;99.90;;;;;;10504684;28;20198;-79
2021/12/11 07:15:02;;;;;;;57.40;27.10;;;-0.40;99.90;;;;;;10504235;28;20266;-79
2021/12/11 07:20:24;;;;;;;64.53;33.57;;;-0.40;99.90;;;;;;10501419;28;20208;-79
2021/12/11 07:25:52;;;;;;;62.13;31.03;;;-0.40;99.90;;;;;;10499195;28;20195;-79
2021/12/11 07:31:15;;;;;;;49.70;25.43;;;-0.40;99.90;;;;;;10486158;28;20459;-79
2021/12/11 07:36:39;;;;;;;53.30;25.43;;;-0.50;99.90;;;;;;10490056;28;20288;-79
2021/12/11 07:42:03;;;;;;;57.13;26.27;;;-0.40;99.90;;;;;;10515041;28;20233;-79
2021/12/11 07:47:29;;;;;;;58.43;26.67;;;-0.50;99.90;;;;;;10498743;28;20284;-79
2021/12/11 07:52:51;;;;;;;57.87;26.53;;;-0.40;99.90;;;;;;10518792;28;20195;-79
2021/12/11 07:58:12;;;;;;;68.17;30.43;;;-0.30;99.90;;;;;;10517402;28;20443;-79
2021/12/11 08:03:35;;;;;;;55.30;25.57;;;-0.30;99.90;;;;;;10502062;28;20385;-79
2021/12/11 08:08:58;;;;;;;58.70;27.33;;;-0.30;99.90;;;;;;10503501;28;20561;-79
2021/12/11 08:14:23;;;;;;;56.83;28.00;;;-0.30;99.90;;;;;;10517378;28;20201;-79
2021/12/11 08:19:45;;;;;;;64.47;28.07;;;-0.20;99.90;;;;;;10523070;28;20239;-79
2021/12/11 08:25:09;;;;;;;66.67;27.97;;;-0.20;99.90;;;;;;10505727;28;20208;-79
2021/12/11 08:30:35;;;;;;;65.27;28.83;;;-0.20;99.90;;;;;;10523365;28;20202;-79
2021/12/11 08:35:58;;;;;;;75.70;31.50;;;-0.20;99.90;;;;;;10523903;28;20233;-80
2021/12/11 08:41:24;;;;;;;66.67;31.53;;;-0.20;99.90;;;;;;10509413;28;20321;-79
2021/12/11 08:46:54;;;;;;;75.83;32.30;;;-0.10;99.90;;;;;;10509545;28;20209;-79
2021/12/11 08:52:31;;;;;;;64.97;28.87;;;-0.10;99.90;;;;;;10506433;28;20204;-79
2021/12/11 08:57:54;;;;;;;60.13;27.00;;;-0.10;99.90;;;;;;10524117;28;20220;-78
2021/12/11 09:03:24;;;;;;;66.30;30.17;;;-0.10;99.90;;;;;;10523530;28;20518;-79
2021/12/11 09:09:03;;;;;;;63.53;29.10;;;0.00;99.90;;;;;;10523925;28;20416;-80
2021/12/11 09:14:35;;;;;;;75.87;31.70;;;0.00;99.90;;;;;;10508543;28;20201;-79
2021/12/11 09:20:10;;;;;;;66.37;32.37;;;0.00;99.90;;;;;;10505867;28;20233;-80
2021/12/11 09:25:46;;;;;;;84.27;37.77;;;0.00;99.90;;;;;;10507862;28;20228;-79
2021/12/11 09:31:14;;;;;;;64.23;30.93;;;0.00;99.90;;;;;;10522466;28;20243;-79
2021/12/11 09:36:41;;;;;;;79.30;33.57;;;-0.20;99.90;;;;;;10522562;28;20417;-79
2021/12/11 09:42:03;;;;;;;81.80;35.33;;;0.10;99.90;;;;;;10519995;28;20471;-80
2021/12/11 09:47:35;;;;;;;74.27;30.40;;;-0.10;99.90;;;;;;10504416;28;20198;-80
2021/12/11 09:52:57;;;;;;;58.33;28.43;;;0.00;99.90;;;;;;10489884;28;20284;-79
2021/12/11 09:58:23;;;;;;;69.73;31.77;;;0.00;99.90;;;;;;10506463;28;20225;-79
2021/12/11 10:03:51;;;;;;;73.20;31.53;;;0.00;99.90;;;;;;10505620;28;20209;-79
2021/12/11 10:09:21;;;;;;;80.73;33.70;;;0.00;99.90;;;;;;10503177;28;20231;-80
2021/12/11 10:14:47;;;;;;;90.20;39.07;;;0.10;99.90;;;;;;10504616;28;20202;-79
2021/12/11 10:20:19;;;;;;;85.20;38.30;;;0.30;99.90;;;;;;10520896;28;20215;-80
2021/12/11 10:25:42;;;;;;;61.80;29.07;;;0.40;99.90;;;;;;10520405;28;20195;-80
2021/12/11 10:31:15;;;;;;;57.90;29.93;;;0.60;99.90;;;;;;10519846;28;20195;-80
2021/12/11 10:36:45;;;;;;;58.67;27.60;;;0.60;99.90;;;;;;10505050;28;20233;-80
2021/12/11 10:42:08;;;;;;;54.33;27.77;;;0.80;99.90;;;;;;10514345;28;20245;-78
2021/12/11 10:47:39;;;;;;;52.40;27.87;;;0.80;99.90;;;;;;10505394;28;20260;-80
2021/12/11 10:53:09;;;;;;;65.67;37.07;;;0.60;99.90;;;;;;10518998;28;20411;-78
2021/12/11 10:58:43;;;;;;;74.10;37.87;;;0.70;99.90;;;;;;10490715;28;20432;-77
2021/12/11 11:04:16;;;;;;;83.07;39.90;;;0.70;99.90;;;;;;10499871;28;20203;-78
2021/12/11 11:09:40;;;;;;;79.80;40.00;;;0.70;99.90;;;;;;10503332;28;20223;-78
2021/12/11 11:15:04;;;;;;;98.63;45.17;;;0.60;99.90;;;;;;10503974;28;20195;-78
2021/12/11 11:20:34;;;;;;;89.07;43.07;;;0.70;99.90;;;;;;10517851;28;20383;-77
2021/12/11 11:25:59;;;;;;;83.43;43.07;;;0.60;99.90;;;;;;10504038;28;20198;-77
2021/12/11 11:31:26;;;;;;;80.30;43.07;;;0.70;99.90;;;;;;10503238;28;20199;-79
2021/12/11 11:36:49;;;;;;;112.87;59.73;;;0.60;99.90;;;;;;10485146;28;20540;-78
2021/12/11 11:42:16;;;;;;;88.60;43.53;;;0.50;99.90;;;;;;10518714;28;20294;-77
2021/12/11 11:47:40;;;;;;;74.10;39.13;;;0.50;99.90;;;;;;10486904;28;20213;-77
2021/12/11 11:53:03;;;;;;;70.83;36.07;;;0.40;99.90;;;;;;10505576;28;20252;-77
2021/12/11 11:58:29;;;;;;;76.20;35.50;;;0.50;99.90;;;;;;10510966;28;20296;-77
2021/12/11 12:03:53;;;;;;;80.83;41.27;;;0.60;99.90;;;;;;10496970;28;20214;-78
2021/12/11 12:09:19;;;;;;;91.60;43.27;;;0.50;99.90;;;;;;10511387;28;20202;-78
2021/12/11 12:14:44;;;;;;;76.77;37.20;;;0.50;99.90;;;;;;10494316;28;20525;-77
2021/12/11 12:20:13;;;;;;;77.20;37.70;;;0.40;99.90;;;;;;10507497;28;20219;-77
2021/12/11 12:25:39;;;;;;;78.37;39.30;;;0.50;99.90;;;;;;10493652;28;20226;-79
2021/12/11 12:31:17;;;;;;;88.70;45.03;;;0.50;99.90;;;;;;10506097;28;20324;-80
2021/12/11 12:36:41;;;;;;;90.07;42.33;;;0.40;99.90;;;;;;10507729;28;20580;-78
2021/12/11 12:42:21;;;;;;;83.40;39.73;;;0.30;99.90;;;;;;10504627;28;20257;-79
2021/12/11 12:47:47;;;;;;;75.07;36.37;;;0.30;99.90;;;;;;10524557;28;20246;-77
2021/12/11 12:53:10;;;;;;;80.57;36.37;;;0.30;99.90;;;;;;10524779;28;20266;-79
2021/12/11 12:58:44;;;;;;;129.23;56.37;;;0.20;99.90;;;;;;10522589;28;20217;-77
2021/12/11 13:04:09;;;;;;;137.77;65.83;;;0.20;99.90;;;;;;10522089;28;20198;-77
2021/12/11 13:09:42;;;;;;;105.13;48.30;;;0.00;99.90;;;;;;10523021;28;20198;-77
2021/12/11 13:15:34;;;;;;;110.50;51.17;;;0.00;99.90;;;;;;10522671;28;20195;-77
2021/12/11 13:21:03;;;;;;;86.07;39.73;;;0.00;99.90;;;;;;10507319;28;20201;-77
2021/12/11 13:26:28;;;;;;;96.63;44.47;;;0.10;99.90;;;;;;10522184;28;20198;-78
2021/12/11 13:32:00;;;;;;;82.53;39.37;;;0.20;99.90;;;;;;10507069;28;20209;-77
2021/12/11 13:37:25;;;;;;;89.83;41.37;;;0.20;99.90;;;;;;10521740;28;20265;-77
2021/12/11 13:42:53;;;;;;;111.17;47.77;;;0.20;99.90;;;;;;10504803;28;20195;-78
2021/12/11 13:48:15;;;;;;;98.00;42.80;;;0.20;99.90;;;;;;10521386;28;20205;-77
2021/12/11 13:53:39;;;;;;;90.03;39.80;;;0.20;99.90;;;;;;10521170;28;20380;-77
2021/12/11 13:59:02;;;;;;;64.93;32.17;;;0.30;99.90;;;;;;10520047;28;20230;-78
2021/12/11 14:04:26;;;;;;;61.87;30.97;;;0.30;99.90;;;;;;10520821;28;20202;-77
2021/12/11 14:09:56;;;;;;;66.33;31.13;;;0.20;99.90;;;;;;10520730;28;20522;-77
2021/12/11 14:15:19;;;;;;;84.77;39.30;;;0.10;99.90;;;;;;10501436;28;20206;-77
2021/12/11 14:20:43;;;;;;;64.17;30.13;;;0.10;99.90;;;;;;10521057;28;20232;-79
2021/12/11 14:26:09;;;;;;;71.03;33.83;;;0.10;99.90;;;;;;10505963;28;20205;-77
2021/12/11 14:31:31;;;;;;;84.30;44.03;;;0.10;99.90;;;;;;10492772;28;20199;-77
2021/12/11 14:36:57;;;;;;;76.73;36.80;;;0.00;99.90;;;;;;10520282;28;20228;-77
2021/12/11 14:42:24;;;;;;;75.90;37.30;;;0.00;99.90;;;;;;10518992;28;20471;-80
2021/12/11 14:47:48;;;;;;;95.10;44.63;;;0.00;99.90;;;;;;10505636;28;20248;-79
2021/12/11 14:53:14;;;;;;;85.57;39.10;;;-0.10;99.90;;;;;;10519591;28;20198;-78
2021/12/11 14:58:38;;;;;;;85.70;41.57;;;-0.20;99.90;;;;;;10517899;28;20404;-80
2021/12/11 15:04:03;;;;;;;116.17;52.40;;;-0.20;99.90;;;;;;10500091;28;20212;-80
2021/12/11 15:09:26;;;;;;;102.47;44.77;;;-0.30;99.90;;;;;;10504493;28;20282;-80
2021/12/11 15:14:49;;;;;;;84.93;39.90;;;-0.40;99.90;;;;;;10518215;28;20319;-79
2021/12/11 15:20:17;;;;;;;109.80;44.93;;;-0.40;99.90;;;;;;10490520;28;20253;-79
2021/12/11 15:25:39;;;;;;;70.67;32.87;;;-0.50;99.90;;;;;;10505690;28;20212;-79
2021/12/11 15:31:07;;;;;;;73.93;35.07;;;-0.60;99.90;;;;;;10518574;28;20208;-79
2021/12/11 15:36:34;;;;;;;94.03;41.23;;;-0.60;99.90;;;;;;10498797;28;20225;-79
2021/12/11 15:41:57;;;;;;;103.87;45.60;;;-0.60;99.90;;;;;;10526135;28;20522;-78
2021/12/11 15:47:22;;;;;;;137.70;53.37;;;-0.60;99.90;;;;;;10526003;28;20201;-77
2021/12/11 15:52:45;;;;;;;148.43;57.67;;;-0.70;99.90;;;;;;10507726;28;20206;-77
2021/12/11 15:58:08;;;;;;;131.17;51.33;;;-0.80;99.90;;;;;;10525608;28;20227;-77
2021/12/11 16:03:31;;;;;;;114.33;46.30;;;-0.90;99.90;;;;;;10511321;28;20277;-77
2021/12/11 16:08:55;;;;;;;109.77;48.13;;;-1.00;99.90;;;;;;10525450;28;20217;-79
2021/12/11 16:14:23;;;;;;;143.93;59.70;;;-1.00;99.90;;;;;;10525788;28;20199;-77
2021/12/11 16:19:50;;;;;;;229.53;79.60;;;-0.90;99.90;;;;;;10510577;28;20543;-77
2021/12/11 16:25:21;;;;;;;132.10;51.43;;;-1.00;99.90;;;;;;10477109;28;20273;-77
2021/12/11 16:30:47;;;;;;;84.57;34.63;;;-1.00;99.90;;;;;;10499070;28;20431;-78
2021/12/11 16:36:10;;;;;;;71.20;32.43;;;-0.90;99.90;;;;;;10523871;28;20199;-77
2021/12/11 16:42:00;;;;;;;119.20;43.97;;;-0.90;99.90;;;;;;10523223;28;20230;-78
2021/12/11 16:47:22;;;;;;;149.50;51.73;;;-1.00;99.90;;;;;;10504965;28;20209;-77
2021/12/11 16:52:44;;;;;;;110.63;47.37;;;-1.00;99.90;;;;;;10524563;28;20213;-77
2021/12/11 16:58:08;;;;;;;113.27;48.87;;;-1.10;99.90;;;;;;10500676;28;20218;-78
2021/12/11 17:03:31;;;;;;;132.67;57.77;;;-1.20;99.90;;;;;;10514270;28;20208;-77
2021/12/11 17:08:54;;;;;;;88.53;38.57;;;-1.20;99.90;;;;;;10522473;28;20468;-80
2021/12/11 17:14:16;;;;;;;100.83;40.70;;;-1.30;99.90;;;;;;10508452;28;20204;-79
2021/12/11 17:19:41;;;;;;;77.77;34.87;;;-1.20;99.90;;;;;;10522691;28;20223;-77
2021/12/11 17:25:05;;;;;;;68.70;30.63;;;-1.20;99.90;;;;;;10505091;28;20213;-77
2021/12/11 17:30:29;;;;;;;115.73;43.07;;;-1.30;99.90;;;;;;10507658;28;20215;-77
2021/12/11 17:35:52;;;;;;;92.20;35.43;;;-1.20;99.90;;;;;;10522040;28;20274;-78
2021/12/11 17:41:14;;;;;;;109.33;39.60;;;-1.20;99.90;;;;;;10521202;28;20271;-80
2021/12/11 17:46:39;;;;;;;157.53;58.53;;;-1.20;99.90;;;;;;10521444;28;20215;-80
2021/12/11 17:52:04;;;;;;;138.67;56.07;;;-1.30;99.90;;;;;;10506706;28;20201;-77
2021/12/11 17:57:26;;;;;;;90.20;39.20;;;-1.20;99.90;;;;;;10502707;28;20220;-80
2021/12/11 18:02:49;;;;;;;90.93;39.00;;;-1.20;99.90;;;;;;10506468;28;20437;-77
2021/12/11 18:08:17;;;;;;;99.13;42.80;;;-1.10;99.90;;;;;;10521395;28;20207;-78
2021/12/11 18:13:44;;;;;;;81.97;37.00;;;-1.20;99.90;;;;;;10506473;28;20403;-77
2021/12/11 18:19:11;;;;;;;84.43;36.87;;;-1.20;99.90;;;;;;10521179;28;20229;-78
2021/12/11 18:24:33;;;;;;;81.43;38.07;;;-1.10;99.90;;;;;;10520839;28;20199;-78
2021/12/11 18:30:02;;;;;;;90.87;39.43;;;-1.10;99.90;;;;;;10518830;28;20206;-77
2021/12/11 18:35:29;;;;;;;86.53;39.33;;;-1.10;99.90;;;;;;10502360;28;20194;-78
2021/12/11 18:41:01;;;;;;;102.73;44.13;;;-1.00;99.90;;;;;;10520190;28;20236;-78
2021/12/11 18:46:27;;;;;;;98.17;43.87;;;-1.00;99.90;;;;;;10520298;28;20216;-77
2021/12/11 18:51:50;;;;;;;108.37;46.53;;;-1.00;99.90;;;;;;10501919;28;20204;-78
2021/12/11 18:57:16;;;;;;;95.13;38.87;;;-1.10;99.90;;;;;;10519426;28;20469;-78
2021/12/11 19:02:43;;;;;;;95.70;39.73;;;-1.20;99.90;;;;;;10484254;28;20249;-78
2021/12/11 19:08:08;;;;;;;91.00;41.67;;;-1.20;99.90;;;;;;10487633;28;20389;-78
2021/12/11 19:13:31;;;;;;;121.40;54.33;;;-1.10;99.90;;;;;;10487794;28;20200;-77
2021/12/11 19:18:53;;;;;;;113.63;52.23;;;-1.10;99.90;;;;;;10504107;28;20240;-78
2021/12/11 19:24:18;;;;;;;85.23;37.73;;;-1.20;99.90;;;;;;10484437;28;20201;-78
2021/12/11 19:29:55;;;;;;;72.93;34.57;;;-1.20;99.90;;;;;;10500108;28;20225;-77
2021/12/11 19:35:17;;;;;;;76.67;36.33;;;-1.30;99.90;;;;;;10504160;28;20276;-78
2021/12/11 19:40:45;;;;;;;73.13;35.83;;;-1.30;99.90;;;;;;10490085;28;20240;-78
2021/12/11 19:46:08;;;;;;;79.23;37.13;;;-1.40;99.90;;;;;;10501440;28;20205;-78
2021/12/11 19:51:36;;;;;;;88.80;38.03;;;-1.40;99.90;;;;;;10518574;28;20565;-78
2021/12/11 19:57:01;;;;;;;82.40;36.83;;;-1.30;99.90;;;;;;10500355;28;20280;-79
2021/12/11 20:02:28;;;;;;;87.43;40.20;;;-1.40;99.90;;;;;;10518309;28;20193;-80
2021/12/11 20:07:53;;;;;;;100.33;41.90;;;-1.60;99.90;;;;;;10466509;28;20213;-77
2021/12/11 20:13:23;;;;;;;74.93;34.03;;;-1.50;99.90;;;;;;10471652;28;20207;-77
2021/12/11 20:18:51;;;;;;;99.73;39.73;;;-1.50;99.90;;;;;;10507885;28;20247;-78
2021/12/11 20:24:15;;;;;;;90.53;39.77;;;-1.50;99.90;;;;;;10507984;28;20221;-78
2021/12/11 20:29:48;;;;;;;79.47;36.77;;;-1.70;99.90;;;;;;10509943;28;20210;-78
2021/12/11 20:35:11;;;;;;;89.30;38.50;;;-1.70;99.90;;;;;;10505928;28;20360;-78
2021/12/11 20:40:44;;;;;;;118.87;46.93;;;-1.70;99.90;;;;;;10510208;28;20233;-78
2021/12/11 20:46:09;;;;;;;93.90;40.87;;;-1.70;99.90;;;;;;10507000;28;20212;-77
2021/12/11 20:51:35;;;;;;;76.60;33.83;;;-1.70;99.90;;;;;;10509919;28;20201;-80
2021/12/11 20:56:59;;;;;;;78.53;32.93;;;-1.90;99.90;;;;;;10514288;28;20224;-78
2021/12/11 21:02:24;;;;;;;80.00;35.40;;;-1.90;99.90;;;;;;10523392;28;20433;-77
2021/12/11 21:07:52;;;;;;;71.43;33.00;;;-2.00;99.90;;;;;;10473570;28;20211;-77
2021/12/11 21:13:24;;;;;;;104.70;43.60;;;-1.80;99.90;;;;;;10480337;28;20275;-79
2021/12/11 21:18:55;;;;;;;155.20;56.17;;;-1.90;99.90;;;;;;10504610;28;20220;-79
2021/12/11 21:24:34;;;;;;;119.07;43.27;;;-1.90;99.90;;;;;;10472568;28;20198;-80
2021/12/11 21:29:57;;;;;;;174.47;55.97;;;-1.90;99.90;;;;;;10502214;28;20392;-80
2021/12/11 21:35:26;;;;;;;139.87;50.63;;;-1.80;99.90;;;;;;10523934;28;20490;-79
2021/12/11 21:40:59;;;;;;;87.43;38.03;;;-1.90;99.90;;;;;;10522453;28;20240;-80
2021/12/11 21:46:25;;;;;;;76.93;32.10;;;-2.00;99.90;;;;;;10504450;28;20196;-79
2021/12/11 21:52:07;;;;;;;100.70;40.20;;;-2.00;99.90;;;;;;10490489;28;20208;-79
2021/12/11 21:57:30;;;;;;;75.27;31.60;;;-2.00;99.90;;;;;;10472242;28;20285;-80
2021/12/11 22:03:06;;;;;;;78.33;34.10;;;-2.10;99.90;;;;;;10506914;28;20197;-79
2021/12/11 22:08:28;;;;;;;75.90;31.73;;;-2.20;99.90;;;;;;10515260;28;20223;-79
2021/12/11 22:13:53;;;;;;;81.87;35.00;;;-2.10;99.90;;;;;;10447725;28;20198;-80
2021/12/11 22:19:18;;;;;;;88.17;35.60;;;-2.10;99.90;;;;;;10502875;28;20232;-79
2021/12/11 22:24:40;;;;;;;83.00;37.10;;;-2.20;99.90;;;;;;10503193;28;20204;-79
2021/12/11 22:30:11;;;;;;;132.17;49.13;;;-2.30;99.90;;;;;;10506093;28;20555;-79
2021/12/11 22:35:37;;;;;;;99.60;38.93;;;-2.30;99.90;;;;;;10503548;28;20238;-79
2021/12/11 22:41:03;;;;;;;70.27;31.27;;;-2.40;99.90;;;;;;10520241;28;20266;-80
2021/12/11 22:46:28;;;;;;;76.03;32.07;;;-2.50;99.90;;;;;;10484816;28;20200;-79
2021/12/11 22:51:54;;;;;;;75.33;31.53;;;-2.50;99.90;;;;;;10505383;28;20235;-79
2021/12/11 22:57:24;;;;;;;67.27;29.47;;;-2.50;99.90;;;;;;10488004;28;20287;-79
2021/12/11 23:02:46;;;;;;;66.30;30.40;;;-2.80;99.90;;;;;;10488146;28;20200;-80
2021/12/11 23:08:11;;;;;;;70.00;30.43;;;-2.80;99.90;;;;;;10488044;28;20499;-80
2021/12/11 23:13:45;;;;;;;75.57;31.10;;;-2.90;99.90;;;;;;10487705;28;20255;-79
2021/12/11 23:19:13;;;;;;;67.60;29.87;;;-2.80;99.90;;;;;;10482257;28;20562;-79
2021/12/11 23:24:49;;;;;;;72.20;30.90;;;-2.80;99.90;;;;;;10519762;28;20196;-79
2021/12/11 23:30:18;;;;;;;69.07;27.43;;;-2.90;99.90;;;;;;10487805;28;20499;-79
2021/12/11 23:35:46;;;;;;;64.83;27.77;;;-2.90;99.90;;;;;;10480452;28;20200;-79
2021/12/11 23:41:13;;;;;;;57.87;27.53;;;-3.00;99.90;;;;;;10490809;28;20611;-79
2021/12/11 23:46:36;;;;;;;65.90;28.60;;;-2.90;99.90;;;;;;10519298;28;20195;-80
2021/12/11 23:51:58;;;;;;;71.87;31.57;;;-3.00;99.90;;;;;;10498356;28;20225;-79
2021/12/11 23:57:29;;;;;;;60.40;27.93;;;-3.00;99.90;;;;;;10525461;28;20227;-79
